Time;durP1;ratioP1;P1;durP2;ratioP2;P2;SDS_P1;SDS_P2;PMS_P1;PMS_P2;Temp;Humidity;BMP_temperature;BMP_pressure;BME280_temperature;BME280_humidity;BME280_pressure;Samples;Min_cycle;Max_cycle;Signal;HPM_P1;HPM_P2
2024/03/11 00:00:50;;;;;;;30.80;15.40;;;6.70;99.90;;;;;;4994687;28;20080;-64
2024/03/11 00:03:16;;;;;;;33.58;15.32;;;6.70;99.90;;;;;;4994722;28;20042;-65
2024/03/11 00:05:44;;;;;;;27.92;14.80;;;6.70;99.90;;;;;;4999125;28;20060;-65
2024/03/11 00:08:16;;;;;;;35.20;15.98;;;6.60;99.90;;;;;;4994330;28;20045;-64
2024/03/11 00:10:44;;;;;;;31.95;15.05;;;6.60;99.90;;;;;;5003380;28;20124;-65
2024/03/11 00:13:10;;;;;;;27.67;15.20;;;6.60;99.90;;;;;;5000120;28;20165;-64
2024/03/11 00:15:39;;;;;;;26.92;14.93;;;6.60;99.90;;;;;;5002738;28;20053;-65
2024/03/11 00:18:07;;;;;;;28.92;13.95;;;6.60;99.90;;;;;;4994483;28;20372;-65
2024/03/11 00:20:33;;;;;;;27.95;14.30;;;6.60;99.90;;;;;;4995162;28;20046;-65
2024/03/11 00:22:59;;;;;;;28.65;14.70;;;6.60;99.90;;;;;;4980725;28;20050;-65
2024/03/11 00:25:25;;;;;;;27.45;14.55;;;6.60;99.90;;;;;;4984214;28;20050;-65
2024/03/11 00:27:50;;;;;;;33.55;15.45;;;6.60;99.90;;;;;;5000581;28;20042;-65
2024/03/11 00:30:17;;;;;;;34.42;14.50;;;6.60;99.90;;;;;;5000897;28;20064;-65
2024/03/11 00:32:47;;;;;;;29.33;14.77;;;6.60;99.90;;;;;;4990329;28;20034;-65
2024/03/11 00:35:14;;;;;;;27.73;15.03;;;6.60;99.90;;;;;;4996867;28;20324;-65
2024/03/11 00:37:40;;;;;;;28.98;14.85;;;6.60;99.90;;;;;;4993561;28;20334;-65
2024/03/11 00:40:08;;;;;;;30.13;14.20;;;6.60;99.90;;;;;;4989624;28;20045;-64
2024/03/11 00:42:39;;;;;;;28.05;14.70;;;6.60;99.90;;;;;;5001150;28;20046;-65
2024/03/11 00:45:11;;;;;;;27.50;14.32;;;6.60;99.90;;;;;;4989840;28;20038;-65
2024/03/11 00:47:41;;;;;;;25.27;13.80;;;6.60;99.90;;;;;;5000772;28;20061;-65
2024/03/11 00:50:09;;;;;;;25.85;12.77;;;6.70;99.90;;;;;;4993061;28;20088;-65
2024/03/11 00:52:36;;;;;;;26.15;14.52;;;6.70;99.90;;;;;;5001757;28;20046;-65
2024/03/11 00:55:03;;;;;;;27.52;14.43;;;6.70;99.90;;;;;;4998577;28;20038;-65
2024/03/11 00:57:29;;;;;;;25.83;14.27;;;6.70;99.90;;;;;;5001594;28;20684;-65
2024/03/11 00:59:56;;;;;;;21.42;13.88;;;6.70;99.90;;;;;;4993403;28;20042;-65
2024/03/11 01:02:24;;;;;;;27.73;14.88;;;6.70;99.90;;;;;;4986241;28;20045;-64
2024/03/11 01:04:52;;;;;;;33.63;14.02;;;6.70;99.90;;;;;;4990632;28;20420;-65
2024/03/11 01:07:20;;;;;;;25.85;14.15;;;6.70;99.90;;;;;;4988736;28;20054;-65
2024/03/11 01:09:46;;;;;;;28.48;14.23;;;6.70;99.90;;;;;;4992105;28;20078;-65
2024/03/11 01:12:12;;;;;;;27.10;13.80;;;6.80;99.90;;;;;;4993671;28;20069;-65
2024/03/11 01:14:38;;;;;;;26.15;14.73;;;6.70;99.90;;;;;;4995896;28;20528;-65
2024/03/11 01:17:04;;;;;;;31.17;14.02;;;6.70;99.90;;;;;;5001116;28;20546;-65
2024/03/11 01:19:31;;;;;;;28.83;14.07;;;6.70;99.90;;;;;;4998299;28;20115;-65
2024/03/11 01:21:59;;;;;;;27.20;14.30;;;6.80;99.90;;;;;;4993914;28;20147;-65
2024/03/11 01:24:28;;;;;;;32.03;15.32;;;6.80;99.90;;;;;;4997377;28;20093;-64
2024/03/11 01:26:57;;;;;;;29.42;15.02;;;6.80;99.90;;;;;;4998683;28;20053;-65
2024/03/11 01:29:26;;;;;;;24.20;13.02;;;6.80;99.90;;;;;;5002934;28;281616;-65
2024/03/11 01:31:52;;;;;;;26.42;13.55;;;6.80;99.90;;;;;;4997942;28;20141;-65
2024/03/11 01:34:21;;;;;;;29.60;14.18;;;6.80;99.90;;;;;;4996169;28;20054;-65
2024/03/11 01:36:47;;;;;;;24.73;12.40;;;6.80;99.90;;;;;;4989562;28;20061;-65
2024/03/11 01:39:25;;;;;;;28.48;13.40;;;6.80;99.90;;;;;;4992617;28;20038;-65
2024/03/11 01:41:52;;;;;;;27.88;14.43;;;6.80;99.90;;;;;;4999668;28;20050;-65
2024/03/11 01:44:19;;;;;;;24.75;13.10;;;6.80;99.90;;;;;;5004130;28;20082;-65
2024/03/11 01:46:47;;;;;;;31.20;13.98;;;6.90;99.90;;;;;;5000509;28;20049;-65
2024/03/11 01:49:16;;;;;;;26.42;13.68;;;6.90;99.90;;;;;;4995743;28;20043;-65
2024/03/11 01:51:43;;;;;;;25.30;14.15;;;7.00;99.90;;;;;;4997301;28;20132;-65
2024/03/11 01:54:10;;;;;;;24.33;12.23;;;7.00;99.90;;;;;;4998909;28;20050;-65
2024/03/11 01:56:37;;;;;;;27.90;14.32;;;7.00;99.90;;;;;;4997828;28;20757;-65
2024/03/11 01:59:04;;;;;;;24.70;12.93;;;7.00;99.90;;;;;;5000629;28;20497;-65
2024/03/11 02:01:30;;;;;;;22.10;12.85;;;7.10;99.90;;;;;;4999058;28;20101;-65
2024/03/11 02:03:56;;;;;;;27.70;13.80;;;7.10;99.90;;;;;;4991177;28;20113;-65
2024/03/11 02:06:24;;;;;;;26.42;13.70;;;7.10;99.90;;;;;;5000905;28;20062;-65
2024/03/11 02:08:50;;;;;;;24.92;14.15;;;7.20;99.90;;;;;;4997784;28;20121;-65
2024/03/11 02:11:17;;;;;;;26.70;13.57;;;7.20;99.90;;;;;;4995023;28;20145;-65
2024/03/11 02:13:44;;;;;;;29.80;15.13;;;7.20;99.90;;;;;;5002240;28;20061;-65
2024/03/11 02:16:11;;;;;;;28.08;14.35;;;7.20;99.90;;;;;;5003468;28;20038;-64
2024/03/11 02:18:37;;;;;;;26.52;13.30;;;7.10;99.90;;;;;;5004246;28;20049;-65
2024/03/11 02:21:03;;;;;;;27.60;13.55;;;7.10;99.90;;;;;;5001068;28;20042;-65
2024/03/11 02:23:28;;;;;;;26.13;13.63;;;7.10;99.90;;;;;;5005295;28;20513;-65
2024/03/11 02:25:55;;;;;;;25.20;13.15;;;7.10;99.90;;;;;;4990060;28;20081;-65
2024/03/11 02:28:23;;;;;;;27.77;13.93;;;7.00;99.90;;;;;;5005357;28;20073;-65
2024/03/11 02:30:48;;;;;;;24.58;14.20;;;7.00;99.90;;;;;;4996747;28;20039;-65
2024/03/11 02:33:14;;;;;;;30.80;14.50;;;6.90;99.90;;;;;;4998232;28;20408;-65
2024/03/11 02:35:40;;;;;;;27.50;13.98;;;6.90;99.90;;;;;;5000155;28;20077;-65
2024/03/11 02:38:06;;;;;;;28.05;14.68;;;6.90;99.90;;;;;;4983725;28;20049;-65
2024/03/11 02:40:37;;;;;;;25.73;13.82;;;6.90;99.90;;;;;;4995747;28;20053;-65
2024/03/11 02:43:07;;;;;;;22.98;13.02;;;7.00;99.90;;;;;;5001181;28;20500;-65
2024/03/11 02:45:34;;;;;;;28.25;13.15;;;6.90;99.90;;;;;;5001845;28;20414;-65
2024/03/11 02:48:06;;;;;;;27.25;14.95;;;6.90;99.90;;;;;;5003725;28;20064;-65
2024/03/11 02:50:33;;;;;;;28.58;13.57;;;6.90;99.90;;;;;;4999516;28;20468;-65
2024/03/11 02:52:59;;;;;;;31.75;13.82;;;6.90;99.90;;;;;;5002170;28;20048;-65
2024/03/11 02:55:24;;;;;;;27.90;12.75;;;6.90;99.90;;;;;;5003832;28;20063;-65
2024/03/11 02:57:51;;;;;;;29.70;14.52;;;7.00;99.90;;;;;;5003222;28;20052;-65
2024/03/11 03:00:18;;;;;;;29.52;14.30;;;6.90;99.90;;;;;;4993808;28;20046;-65
2024/03/11 03:02:43;;;;;;;24.38;13.18;;;6.90;99.90;;;;;;4992257;28;20047;-65
2024/03/11 03:05:12;;;;;;;25.13;13.27;;;7.00;99.90;;;;;;4999733;28;20090;-65
2024/03/11 03:07:37;;;;;;;28.95;13.82;;;6.90;99.90;;;;;;5003440;28;20496;-65
2024/03/11 03:10:04;;;;;;;30.10;14.18;;;6.90;99.90;;;;;;5000902;28;20053;-65
2024/03/11 03:12:30;;;;;;;28.52;13.55;;;6.90;99.90;;;;;;5002728;28;20418;-65
2024/03/11 03:14:57;;;;;;;28.00;12.85;;;6.90;99.90;;;;;;4996980;28;20169;-65
2024/03/11 03:17:23;;;;;;;23.13;13.23;;;6.90;99.90;;;;;;5000001;28;20042;-65
2024/03/11 03:19:49;;;;;;;26.30;14.15;;;6.80;99.90;;;;;;5001343;28;20046;-65
2024/03/11 03:22:14;;;;;;;26.80;13.00;;;6.90;99.90;;;;;;5004195;28;20049;-65
2024/03/11 03:24:40;;;;;;;20.00;11.88;;;6.80;99.90;;;;;;4993913;28;20095;-65
2024/03/11 03:27:06;;;;;;;23.85;12.63;;;6.80;99.90;;;;;;5004243;28;20467;-65
2024/03/11 03:29:32;;;;;;;24.25;13.30;;;6.80;99.90;;;;;;5001706;28;20795;-65
2024/03/11 03:31:58;;;;;;;25.75;13.43;;;6.80;99.90;;;;;;4998217;28;20050;-64
2024/03/11 03:34:24;;;;;;;28.27;13.13;;;6.80;99.90;;;;;;4998839;28;20049;-65
2024/03/11 03:36:50;;;;;;;26.27;13.50;;;6.80;99.90;;;;;;5002805;28;20038;-65
2024/03/11 03:39:15;;;;;;;24.75;12.93;;;6.80;99.90;;;;;;4998370;28;20539;-65
2024/03/11 03:41:41;;;;;;;27.50;12.85;;;6.70;99.90;;;;;;5002617;28;20045;-65
2024/03/11 03:44:07;;;;;;;24.95;12.57;;;6.70;99.90;;;;;;4998501;28;20049;-65
2024/03/11 03:46:33;;;;;;;21.83;12.15;;;6.70;99.90;;;;;;4997993;28;20049;-65
2024/03/11 03:48:58;;;;;;;26.02;12.40;;;6.70;99.90;;;;;;4999913;28;20084;-65
2024/03/11 03:51:25;;;;;;;27.67;13.52;;;6.70;99.90;;;;;;4998251;28;20079;-65
2024/03/11 03:53:51;;;;;;;28.50;12.60;;;6.70;99.90;;;;;;5000827;28;20598;-65
2024/03/11 03:56:17;;;;;;;25.42;12.15;;;6.60;99.90;;;;;;4998288;28;20050;-65
2024/03/11 03:58:42;;;;;;;29.05;13.85;;;6.60;99.90;;;;;;5002592;28;20038;-65
2024/03/11 04:01:09;;;;;;;25.63;13.32;;;6.60;99.90;;;;;;4997846;28;20145;-65
2024/03/11 04:03:35;;;;;;;28.13;13.13;;;6.60;99.90;;;;;;4988119;28;20507;-65
2024/03/11 04:06:01;;;;;;;27.52;12.60;;;6.50;99.90;;;;;;4985150;28;20112;-65
2024/03/11 04:08:27;;;;;;;23.92;12.88;;;6.50;99.90;;;;;;4997182;28;20065;-65
2024/03/11 04:10:53;;;;;;;25.00;12.50;;;6.50;99.90;;;;;;4987848;28;20042;-65
2024/03/11 04:13:19;;;;;;;25.20;12.60;;;6.50;99.90;;;;;;5003008;28;20120;-65
2024/03/11 04:15:46;;;;;;;27.95;11.52;;;6.50;99.90;;;;;;5000723;28;20041;-65
2024/03/11 04:18:11;;;;;;;25.58;12.25;;;6.50;99.90;;;;;;4990178;28;20508;-65
2024/03/11 04:20:39;;;;;;;24.25;12.68;;;6.50;99.90;;;;;;5001111;28;20056;-65
2024/03/11 04:23:07;;;;;;;24.80;12.00;;;6.50;99.90;;;;;;5002298;28;20107;-65
2024/03/11 04:25:37;;;;;;;23.30;11.68;;;6.40;99.90;;;;;;4993326;28;20551;-65
2024/03/11 04:28:05;;;;;;;24.70;12.25;;;6.40;99.90;;;;;;4991999;28;20509;-65
2024/03/11 04:30:39;;;;;;;23.58;12.32;;;6.40;99.90;;;;;;4999977;28;20072;-65
2024/03/11 04:33:06;;;;;;;23.35;11.75;;;6.40;99.90;;;;;;5001647;28;20045;-65
2024/03/11 04:35:33;;;;;;;25.75;12.30;;;6.40;99.90;;;;;;5001776;28;20057;-65
2024/03/11 04:38:04;;;;;;;25.00;11.73;;;6.40;99.90;;;;;;5000979;28;20056;-65
2024/03/11 04:40:32;;;;;;;29.17;12.13;;;6.40;99.90;;;;;;4994024;28;20077;-65
2024/03/11 04:42:58;;;;;;;21.65;11.88;;;6.30;99.90;;;;;;4998224;28;20046;-65
2024/03/11 04:45:26;;;;;;;24.70;12.35;;;6.40;99.90;;;;;;5002082;28;20104;-65
2024/03/11 04:47:57;;;;;;;22.98;11.77;;;6.30;99.90;;;;;;4997547;28;20415;-65
2024/03/11 04:50:27;;;;;;;21.10;9.88;;;6.30;99.90;;;;;;4998696;28;20038;-65
2024/03/11 04:52:55;;;;;;;;;;;6.30;99.90;;;;;;5001665;28;20208;-65
2024/03/11 04:55:21;;;;;;;23.85;11.63;;;6.30;99.90;;;;;;5001197;28;20289;-64
2024/03/11 04:57:47;;;;;;;27.80;12.30;;;6.30;99.90;;;;;;5000930;28;20056;-65
2024/03/11 05:00:14;;;;;;;29.27;12.07;;;6.30;99.90;;;;;;4998661;28;20456;-65
2024/03/11 05:02:40;;;;;;;24.40;12.82;;;6.30;99.90;;;;;;4977296;28;20049;-65
2024/03/11 05:05:10;;;;;;;29.85;12.45;;;6.30;99.90;;;;;;5000799;28;21334;-65
2024/03/11 05:07:36;;;;;;;31.05;12.10;;;6.30;99.90;;;;;;4993330;28;20099;-64
2024/03/11 05:10:07;;;;;;;24.98;11.77;;;6.30;99.90;;;;;;4996504;28;20498;-65
2024/03/11 05:12:33;;;;;;;29.85;13.25;;;6.30;99.90;;;;;;4995888;28;20077;-65
2024/03/11 05:14:59;;;;;;;28.70;12.57;;;6.30;99.90;;;;;;4991794;28;20535;-65
2024/03/11 05:17:26;;;;;;;24.23;12.27;;;6.30;99.90;;;;;;4996188;28;20519;-65
2024/03/11 05:19:52;;;;;;;20.35;12.60;;;6.30;99.90;;;;;;4998084;28;20038;-65
2024/03/11 05:22:19;;;;;;;27.33;12.45;;;6.30;99.90;;;;;;4995919;28;20488;-65
2024/03/11 05:24:45;;;;;;;25.00;12.70;;;6.30;99.90;;;;;;4999844;28;20038;-65
2024/03/11 05:27:11;;;;;;;23.88;11.75;;;6.30;99.90;;;;;;4997449;28;20065;-65
2024/03/11 05:29:37;;;;;;;25.65;11.90;;;6.30;99.90;;;;;;5001466;28;20062;-65
2024/03/11 05:32:03;;;;;;;29.73;13.27;;;6.20;99.90;;;;;;4992086;28;20052;-65
2024/03/11 05:34:29;;;;;;;21.33;10.52;;;6.30;99.90;;;;;;5002400;28;20073;-64
2024/03/11 05:36:55;;;;;;;26.05;12.13;;;6.30;99.90;;;;;;5000607;28;20045;-65
2024/03/11 05:39:21;;;;;;;25.63;12.38;;;6.30;99.90;;;;;;4988151;28;20041;-65
2024/03/11 05:41:47;;;;;;;25.52;12.55;;;6.20;99.90;;;;;;5001318;28;20620;-65
2024/03/11 05:44:15;;;;;;;23.30;10.60;;;6.20;99.90;;;;;;4995481;28;20529;-65
2024/03/11 05:46:42;;;;;;;27.02;11.80;;;6.30;99.90;;;;;;4997883;28;20132;-65
2024/03/11 05:49:13;;;;;;;24.70;12.65;;;6.30;99.90;;;;;;4994594;28;20047;-65
2024/03/11 05:51:42;;;;;;;28.35;12.55;;;6.20;99.90;;;;;;4993158;28;20065;-66
2024/03/11 05:54:17;;;;;;;27.70;11.75;;;6.20;99.90;;;;;;5001021;28;20050;-65
2024/03/11 05:56:53;;;;;;;22.27;11.25;;;6.20;99.90;;;;;;5001493;28;20122;-65
2024/03/11 05:59:21;;;;;;;29.23;11.40;;;6.20;99.90;;;;;;4997177;28;20035;-65
2024/03/11 06:01:49;;;;;;;21.50;11.15;;;6.20;99.90;;;;;;4994721;28;20093;-65
2024/03/11 06:04:15;;;;;;;21.67;10.82;;;6.20;99.90;;;;;;5001829;28;20053;-65
2024/03/11 06:06:48;;;;;;;25.33;11.02;;;6.20;99.90;;;;;;4992508;28;20045;-65
2024/03/11 06:09:15;;;;;;;24.20;10.00;;;6.20;99.90;;;;;;5001433;28;20335;-64
2024/03/11 06:11:53;;;;;;;24.60;11.70;;;6.20;99.90;;;;;;4985178;28;20074;-65
2024/03/11 06:14:19;;;;;;;19.27;10.00;;;6.20;99.90;;;;;;5000983;28;20052;-65
2024/03/11 06:16:45;;;;;;;29.83;11.35;;;6.20;99.90;;;;;;4997350;28;20496;-65
2024/03/11 06:19:14;;;;;;;20.33;11.63;;;6.20;99.90;;;;;;5001019;28;20058;-65
2024/03/11 06:21:42;;;;;;;25.05;11.32;;;6.20;99.90;;;;;;4989515;28;20125;-65
2024/03/11 06:24:12;;;;;;;20.08;10.77;;;6.20;99.90;;;;;;4995866;28;20053;-65
2024/03/11 06:26:38;;;;;;;23.30;10.32;;;6.20;99.90;;;;;;5001136;28;20060;-65
2024/03/11 06:29:08;;;;;;;28.88;12.27;;;6.20;99.90;;;;;;5002173;28;20054;-65
2024/03/11 06:31:34;;;;;;;24.17;10.88;;;6.20;99.90;;;;;;4992818;28;20038;-65
2024/03/11 06:34:02;;;;;;;27.30;10.88;;;6.20;99.90;;;;;;4998116;28;20115;-65
2024/03/11 06:36:29;;;;;;;23.48;10.65;;;6.20;99.90;;;;;;4996083;28;20043;-65
2024/03/11 06:38:55;;;;;;;19.40;9.98;;;6.20;99.90;;;;;;4999101;28;20062;-65
2024/03/11 06:41:21;;;;;;;23.23;11.27;;;6.30;99.90;;;;;;4995817;28;20558;-65
2024/03/11 06:43:47;;;;;;;23.73;11.20;;;6.20;99.90;;;;;;4994972;28;20088;-65
2024/03/11 06:46:15;;;;;;;20.90;9.82;;;6.30;99.90;;;;;;5001154;28;20049;-65
2024/03/11 06:48:41;;;;;;;19.55;10.82;;;6.20;99.90;;;;;;4996538;28;20104;-65
2024/03/11 06:51:08;;;;;;;17.38;9.50;;;6.30;99.90;;;;;;4999745;28;20532;-65
2024/03/11 06:53:39;;;;;;;28.73;11.55;;;6.20;99.90;;;;;;4988990;28;20089;-65
2024/03/11 06:56:10;;;;;;;25.27;10.52;;;6.30;99.90;;;;;;4997922;28;20603;-65
2024/03/11 06:58:38;;;;;;;23.08;10.30;;;6.30;99.90;;;;;;5002415;28;20054;-65
2024/03/11 07:01:07;;;;;;;29.08;11.40;;;6.30;99.90;;;;;;4992523;28;20046;-65
2024/03/11 07:03:37;;;;;;;35.08;11.45;;;6.30;99.90;;;;;;4991640;28;20038;-65
2024/03/11 07:06:03;;;;;;;24.98;10.77;;;6.30;99.90;;;;;;4997378;28;20551;-65
2024/03/11 07:08:31;;;;;;;27.67;11.52;;;6.30;99.90;;;;;;4996771;28;20050;-65
2024/03/11 07:10:59;;;;;;;20.17;10.30;;;6.30;99.90;;;;;;4997977;28;20057;-65
2024/03/11 07:13:25;;;;;;;22.25;10.23;;;6.40;99.90;;;;;;4999859;28;20448;-65
2024/03/11 07:15:51;;;;;;;19.27;9.90;;;6.40;99.90;;;;;;4991544;28;20046;-65
2024/03/11 07:18:17;;;;;;;21.80;10.45;;;6.40;99.90;;;;;;5003908;28;20173;-64
2024/03/11 07:20:48;;;;;;;22.30;10.35;;;6.40;99.90;;;;;;5000885;28;20042;-65
2024/03/11 07:23:14;;;;;;;23.65;10.35;;;6.40;99.90;;;;;;4999601;28;20062;-65
2024/03/11 07:25:40;;;;;;;22.02;10.05;;;6.40;99.90;;;;;;4994414;28;20046;-64
2024/03/11 07:28:07;;;;;;;20.15;10.10;;;6.50;99.90;;;;;;5002648;28;20061;-65
2024/03/11 07:30:33;;;;;;;20.92;10.30;;;6.50;99.90;;;;;;4995467;28;20188;-65
2024/03/11 07:33:04;;;;;;;26.00;12.13;;;6.50;99.90;;;;;;5002265;28;20506;-65
2024/03/11 07:35:32;;;;;;;18.95;9.13;;;6.50;99.90;;;;;;5003642;28;20054;-65
2024/03/11 07:37:58;;;;;;;24.70;10.10;;;6.50;99.90;;;;;;5003521;28;20451;-65
2024/03/11 07:40:24;;;;;;;18.92;9.68;;;6.60;99.90;;;;;;4989369;28;20148;-65
2024/03/11 07:42:51;;;;;;;18.67;9.50;;;6.60;99.90;;;;;;4997614;28;20503;-65
2024/03/11 07:45:20;;;;;;;20.05;9.23;;;6.60;99.90;;;;;;5002946;28;20057;-65
2024/03/11 07:47:47;;;;;;;19.15;10.07;;;6.60;99.90;;;;;;4996656;28;20436;-65
2024/03/11 07:50:13;;;;;;;22.33;10.45;;;6.70;99.90;;;;;;5000937;28;20054;-65
2024/03/11 07:52:40;;;;;;;23.67;9.40;;;6.70;99.90;;;;;;4999035;28;20054;-65
2024/03/11 07:55:07;;;;;;;24.33;10.48;;;6.70;99.90;;;;;;5000883;28;20046;-65
2024/03/11 07:57:35;;;;;;;23.05;10.35;;;6.70;99.90;;;;;;4997632;28;20057;-65
2024/03/11 08:00:05;;;;;;;25.48;10.23;;;6.80;99.90;;;;;;4987149;28;20126;-65
2024/03/11 08:02:34;;;;;;;20.33;10.23;;;6.80;99.90;;;;;;4984538;28;20039;-65
2024/03/11 08:05:01;;;;;;;21.88;10.48;;;6.80;99.90;;;;;;4989417;28;20153;-64
2024/03/11 08:07:32;;;;;;;22.20;10.70;;;6.80;99.90;;;;;;4999705;28;20053;-65
2024/03/11 08:10:00;;;;;;;22.95;10.50;;;6.80;99.90;;;;;;5002188;28;20392;-65
2024/03/11 08:12:27;;;;;;;26.88;10.38;;;6.80;99.90;;;;;;4999389;28;20045;-65
2024/03/11 08:14:53;;;;;;;23.35;10.20;;;6.80;99.90;;;;;;4999204;28;20046;-65
2024/03/11 08:17:19;;;;;;;21.40;10.35;;;6.90;99.90;;;;;;4999611;28;20383;-65
2024/03/11 08:19:45;;;;;;;17.73;9.38;;;6.90;99.90;;;;;;5000601;28;20531;-64
2024/03/11 08:22:14;;;;;;;26.02;10.75;;;7.00;99.90;;;;;;4999902;28;20381;-65
2024/03/11 08:24:40;;;;;;;23.67;10.57;;;7.10;99.90;;;;;;5001856;28;20434;-65
2024/03/11 08:27:06;;;;;;;22.83;10.63;;;7.10;99.90;;;;;;4994083;28;20134;-64
2024/03/11 08:29:32;;;;;;;23.73;9.68;;;7.20;99.90;;;;;;4999616;28;20148;-65
2024/03/11 08:32:00;;;;;;;25.45;10.00;;;7.20;99.90;;;;;;4998808;28;20077;-65
2024/03/11 08:34:28;;;;;;;17.70;9.43;;;7.20;99.90;;;;;;5002484;28;20413;-65
2024/03/11 08:36:53;;;;;;;22.65;10.15;;;7.20;99.90;;;;;;4998599;28;20142;-65
2024/03/11 08:39:22;;;;;;;22.15;9.63;;;7.20;99.90;;;;;;5002755;28;20038;-65
2024/03/11 08:41:48;;;;;;;17.55;9.65;;;7.20;99.90;;;;;;4994814;28;20139;-64
2024/03/11 08:44:14;;;;;;;19.20;10.10;;;7.20;99.90;;;;;;4994769;28;20050;-65
2024/03/11 08:46:43;;;;;;;17.83;9.15;;;7.10;99.90;;;;;;4998832;28;20042;-65
2024/03/11 08:49:12;;;;;;;29.00;10.32;;;7.10;99.90;;;;;;4997158;28;20595;-65
2024/03/11 08:51:41;;;;;;;20.93;9.83;;;7.20;99.90;;;;;;4993315;28;20053;-65
2024/03/11 08:54:07;;;;;;;19.23;9.63;;;7.20;99.90;;;;;;4997808;28;20347;-65
2024/03/11 08:56:34;;;;;;;22.70;10.95;;;7.10;99.90;;;;;;4992933;28;20448;-65
2024/03/11 08:59:10;;;;;;;21.30;9.88;;;7.10;99.90;;;;;;4994856;28;20042;-65
2024/03/11 09:01:44;;;;;;;22.77;9.77;;;7.10;99.90;;;;;;4996127;28;20589;-65
2024/03/11 09:04:10;;;;;;;22.08;9.90;;;7.20;99.90;;;;;;4990266;28;20519;-65
2024/03/11 09:06:41;;;;;;;25.25;9.82;;;7.30;99.90;;;;;;4977884;28;20046;-65
2024/03/11 09:09:14;;;;;;;16.90;8.95;;;7.30;99.90;;;;;;5000686;28;20058;-65
2024/03/11 09:11:40;;;;;;;23.73;10.07;;;7.30;99.90;;;;;;4993994;28;20489;-65
2024/03/11 09:14:07;;;;;;;17.85;10.25;;;7.40;99.90;;;;;;5002526;28;20046;-65
2024/03/11 09:16:33;;;;;;;18.02;9.88;;;7.40;99.90;;;;;;4997917;28;20045;-64
2024/03/11 09:18:59;;;;;;;16.83;9.55;;;7.40;99.90;;;;;;5002567;28;20096;-65
2024/03/11 09:21:26;;;;;;;22.13;9.40;;;7.50;99.90;;;;;;4995739;28;20116;-65
2024/03/11 09:23:52;;;;;;;20.27;9.38;;;7.50;99.90;;;;;;4994353;28;20500;-64
2024/03/11 09:26:18;;;;;;;19.10;11.40;;;7.50;99.90;;;;;;5000243;28;20057;-64
2024/03/11 09:28:47;;;;;;;20.02;10.52;;;7.50;99.90;;;;;;4983248;28;20495;-64
2024/03/11 09:31:13;;;;;;;25.02;10.63;;;7.50;99.90;;;;;;4994308;28;20043;-65
2024/03/11 09:33:42;;;;;;;18.90;10.38;;;7.40;99.90;;;;;;5000790;28;20111;-65
2024/03/11 09:36:08;;;;;;;23.52;9.90;;;7.40;99.90;;;;;;4992876;28;20441;-65
2024/03/11 09:38:34;;;;;;;21.92;10.27;;;7.40;99.90;;;;;;4999645;28;20042;-65
2024/03/11 09:41:09;;;;;;;21.95;10.85;;;7.30;99.90;;;;;;4992164;28;20100;-65
2024/03/11 09:43:37;;;;;;;17.75;9.65;;;7.30;99.90;;;;;;4996920;28;20060;-64
2024/03/11 09:46:04;;;;;;;19.55;10.13;;;7.30;99.90;;;;;;4999060;28;20054;-65
2024/03/11 09:48:30;;;;;;;22.20;10.07;;;7.30;99.90;;;;;;4997650;28;20100;-65
2024/03/11 09:50:57;;;;;;;25.02;11.02;;;7.30;99.90;;;;;;4971956;28;20484;-64
2024/03/11 09:53:25;;;;;;;23.75;9.93;;;7.30;99.90;;;;;;4993652;28;20411;-64
2024/03/11 09:55:54;;;;;;;21.05;9.45;;;7.30;99.90;;;;;;4994220;28;20086;-65
2024/03/11 09:58:23;;;;;;;23.75;11.43;;;7.30;99.90;;;;;;4998257;28;20042;-64
2024/03/11 10:00:55;;;;;;;21.20;10.70;;;7.30;99.90;;;;;;4995075;28;20045;-65
2024/03/11 10:03:27;;;;;;;18.85;9.48;;;7.30;99.90;;;;;;4997682;28;20042;-65
2024/03/11 10:06:07;;;;;;;20.58;10.27;;;7.30;99.90;;;;;;5003200;28;20046;-65
2024/03/11 10:08:35;;;;;;;20.15;10.45;;;7.30;99.90;;;;;;5002060;28;20219;-65
2024/03/11 10:11:10;;;;;;;20.05;10.82;;;7.30;99.90;;;;;;5001845;28;20053;-65
2024/03/11 10:13:36;;;;;;;24.65;11.07;;;7.40;99.90;;;;;;5004753;28;20061;-65
2024/03/11 10:16:24;;;;;;;23.85;10.80;;;7.50;99.90;;;;;;4999529;28;20050;-65
2024/03/11 10:19:02;;;;;;;21.55;11.35;;;7.50;99.90;;;;;;5002714;28;20523;-65
2024/03/11 10:21:29;;;;;;;21.67;9.82;;;7.60;99.90;;;;;;5001846;28;20050;-65
2024/03/11 10:23:59;;;;;;;18.83;10.25;;;7.70;99.90;;;;;;5004910;28;20141;-65
2024/03/11 10:26:27;;;;;;;20.63;11.07;;;7.80;99.90;;;;;;5001507;28;20451;-65
2024/03/11 10:28:56;;;;;;;21.38;10.93;;;7.80;99.90;;;;;;5001494;28;20053;-65
2024/03/11 10:31:23;;;;;;;21.35;11.45;;;7.80;99.90;;;;;;4997353;28;20108;-64
2024/03/11 10:33:52;;;;;;;33.63;10.90;;;7.80;99.90;;;;;;4995127;28;20042;-64
2024/03/11 10:36:20;;;;;;;18.77;10.67;;;7.80;99.90;;;;;;4999225;28;20113;-65
2024/03/11 10:38:47;;;;;;;25.92;11.13;;;7.80;99.90;;;;;;4997755;28;20672;-65
2024/03/11 10:41:20;;;;;;;22.98;10.60;;;7.80;99.90;;;;;;4991563;28;20058;-65
2024/03/11 10:43:51;;;;;;;21.83;10.27;;;7.80;99.90;;;;;;5004794;28;20050;-65
2024/03/11 10:46:20;;;;;;;20.88;10.30;;;7.80;99.90;;;;;;5000657;28;20072;-65
2024/03/11 10:48:50;;;;;;;17.75;9.70;;;7.80;99.90;;;;;;5002039;28;20100;-65
2024/03/11 10:51:30;;;;;;;23.05;11.35;;;7.80;99.90;;;;;;5002918;28;20050;-65
2024/03/11 10:54:03;;;;;;;19.85;10.23;;;7.80;99.90;;;;;;5003543;28;20137;-65
2024/03/11 10:56:32;;;;;;;16.88;9.55;;;7.80;99.90;;;;;;5002700;28;20124;-64
2024/03/11 10:59:03;;;;;;;19.52;9.88;;;7.80;99.90;;;;;;5001857;28;20450;-65
2024/03/11 11:01:33;;;;;;;26.27;10.95;;;7.80;99.90;;;;;;5000742;28;20164;-64
2024/03/11 11:04:14;;;;;;;18.13;10.07;;;7.80;99.90;;;;;;5002018;28;20131;-65
2024/03/11 11:06:48;;;;;;;21.85;11.10;;;7.90;99.90;;;;;;5001996;28;20058;-65
2024/03/11 11:09:15;;;;;;;24.25;10.32;;;7.90;99.90;;;;;;5002008;28;20108;-65
2024/03/11 11:11:51;;;;;;;17.38;10.15;;;7.90;99.90;;;;;;4993868;28;20735;-65
2024/03/11 11:14:24;;;;;;;20.65;11.43;;;8.00;99.90;;;;;;4999491;28;20054;-65
2024/03/11 11:16:52;;;;;;;19.58;11.02;;;8.10;99.90;;;;;;4998492;28;20425;-65
2024/03/11 11:19:24;;;;;;;29.30;11.00;;;8.20;99.90;;;;;;5002378;28;20061;-64
2024/03/11 11:21:51;;;;;;;22.95;10.57;;;8.20;99.90;;;;;;4994619;28;20283;-64
2024/03/11 11:24:29;;;;;;;20.20;11.10;;;8.30;99.90;;;;;;5002532;28;20128;-65
2024/03/11 11:27:01;;;;;;;17.65;8.95;;;8.30;99.90;;;;;;4995845;28;20049;-65
2024/03/11 11:29:29;;;;;;;20.63;10.82;;;8.30;99.90;;;;;;5000987;28;20065;-65
2024/03/11 11:32:13;;;;;;;22.98;10.43;;;8.40;99.90;;;;;;4997716;28;20046;-65
2024/03/11 11:34:48;;;;;;;19.60;11.40;;;8.40;99.90;;;;;;5001830;28;20045;-64
2024/03/11 11:37:23;;;;;;;26.08;11.35;;;8.40;99.90;;;;;;5001727;28;20050;-64
2024/03/11 11:39:54;;;;;;;20.90;10.88;;;8.50;99.90;;;;;;5001884;28;20489;-65
2024/03/11 11:42:40;;;;;;;23.98;10.80;;;8.50;99.90;;;;;;4999414;28;20447;-65
2024/03/11 11:45:11;;;;;;;18.48;8.85;;;8.60;99.90;;;;;;4999931;28;20050;-65
2024/03/11 11:47:40;;;;;;;25.70;11.30;;;8.80;99.90;;;;;;4989982;28;20058;-65
2024/03/11 11:50:26;;;;;;;21.00;10.63;;;8.90;99.90;;;;;;4988975;28;20093;-64
2024/03/11 11:53:01;;;;;;;19.02;9.82;;;8.80;99.90;;;;;;4979037;28;20049;-64
2024/03/11 11:55:28;;;;;;;22.40;11.07;;;8.90;99.90;;;;;;4998312;28;20049;-65
2024/03/11 11:58:07;;;;;;;22.35;10.80;;;8.90;99.90;;;;;;4999709;28;20050;-64
2024/03/11 12:00:42;;;;;;;18.20;10.57;;;8.90;99.90;;;;;;4990592;28;20125;-64
2024/03/11 12:03:28;;;;;;;17.40;10.40;;;8.90;99.90;;;;;;4989466;28;20085;-64
2024/03/11 12:06:20;;;;;;;27.88;11.30;;;8.90;99.90;;;;;;4993535;28;20049;-64
2024/03/11 12:08:53;;;;;;;17.42;8.75;;;8.90;99.90;;;;;;4992740;28;20088;-64
2024/03/11 12:11:19;;;;;;;20.10;10.02;;;8.80;99.90;;;;;;4986725;28;20038;-64
2024/03/11 12:13:47;;;;;;;22.70;11.63;;;8.90;99.90;;;;;;4995845;28;20203;-65
2024/03/11 12:16:22;;;;;;;21.77;10.98;;;8.90;99.90;;;;;;4997084;28;20535;-64
2024/03/11 12:19:02;;;;;;;20.92;10.85;;;8.80;99.90;;;;;;4995206;28;20046;-64
2024/03/11 12:21:29;;;;;;;18.73;10.77;;;8.90;99.90;;;;;;5000717;28;20096;-64
2024/03/11 12:23:56;;;;;;;23.08;9.93;;;8.90;99.90;;;;;;4993261;28;20050;-64
2024/03/11 12:26:23;;;;;;;22.02;9.93;;;8.90;99.90;;;;;;4999909;28;20049;-65
2024/03/11 12:29:13;;;;;;;19.88;10.13;;;9.00;99.90;;;;;;5001637;28;20522;-64
2024/03/11 12:31:38;;;;;;;19.55;10.45;;;9.00;99.90;;;;;;5000298;28;20050;-65
2024/03/11 12:34:14;;;;;;;22.60;10.68;;;9.00;99.90;;;;;;4992518;28;20046;-64
2024/03/11 12:36:48;;;;;;;22.55;11.20;;;9.00;99.90;;;;;;5001643;28;20038;-65
2024/03/11 12:39:26;;;;;;;19.55;9.88;;;9.10;99.90;;;;;;5000794;28;20077;-64
2024/03/11 12:41:53;;;;;;;19.98;11.07;;;9.10;99.90;;;;;;4996549;28;20445;-64
2024/03/11 12:44:20;;;;;;;18.05;10.25;;;9.20;99.90;;;;;;4996777;28;20050;-65